Los Gatos, California
Current Conditions -  °F | °C
As of 1:53 AM on Thursday 23 Oct 2014 (Local Time) from KSJC Reporting Station
Clear Clear  
Wind Chill: 15°   Ceiling: Unl
Heat Index: 15°   Visibility: 10mi
Dew Point: 12°   Wind: 0mph
Humidity: 83%   Direction: NA
Pressure: 30.04"   Gusts: NA
Location:  37.22°N, 121.97°W
Report Text: KSJC 230853Z AUTO 00000KT 10SM CLR 15/12 A3004 RMK AO2 SLP172 T01500122 56004
Loading
Personal Weather Stations






























Interactive Weather Map
Tropical Storm Tracking
New forecast layout! Learn more

10-Day Weather Forecast

Advertisements
Track Severe Weather on mobile